sensor_id;sensor_type;location;lat;lon;timestamp;P1;durP1;ratioP1;P2;durP2;ratioP2
55641;SDS011;41509;53.108;6.100;2024-01-10T00:01:34;15.00;;;6.50;;
55641;SDS011;41509;53.108;6.100;2024-01-10T00:03:59;15.20;;;7.73;;
55641;SDS011;41509;53.108;6.100;2024-01-10T00:06:25;17.92;;;8.18;;
55641;SDS011;41509;53.108;6.100;2024-01-10T00:08:51;15.70;;;7.57;;
55641;SDS011;41509;53.108;6.100;2024-01-10T00:11:17;14.97;;;7.07;;
55641;SDS011;41509;53.108;6.100;2024-01-10T00:13:43;16.55;;;6.82;;
55641;SDS011;41509;53.108;6.100;2024-01-10T00:16:08;17.33;;;7.17;;
55641;SDS011;41509;53.108;6.100;2024-01-10T00:18:37;14.57;;;7.00;;
55641;SDS011;41509;53.108;6.100;2024-01-10T00:21:02;15.27;;;7.20;;
55641;SDS011;41509;53.108;6.100;2024-01-10T00:23:28;12.13;;;6.43;;
55641;SDS011;41509;53.108;6.100;2024-01-10T00:25:56;17.60;;;8.00;;
55641;SDS011;41509;53.108;6.100;2024-01-10T00:28:22;17.13;;;8.27;;
55641;SDS011;41509;53.108;6.100;2024-01-10T00:30:47;11.67;;;6.97;;
55641;SDS011;41509;53.108;6.100;2024-01-10T00:33:13;14.57;;;8.03;;
55641;SDS011;41509;53.108;6.100;2024-01-10T00:35:39;13.77;;;7.50;;
55641;SDS011;41509;53.108;6.100;2024-01-10T00:38:05;16.87;;;8.63;;
55641;SDS011;41509;53.108;6.100;2024-01-10T00:40:30;17.33;;;8.00;;
55641;SDS011;41509;53.108;6.100;2024-01-10T00:42:56;17.53;;;7.80;;
55641;SDS011;41509;53.108;6.100;2024-01-10T00:45:22;15.23;;;7.43;;
55641;SDS011;41509;53.108;6.100;2024-01-10T00:47:51;18.37;;;8.10;;
55641;SDS011;41509;53.108;6.100;2024-01-10T00:50:17;18.10;;;7.82;;
55641;SDS011;41509;53.108;6.100;2024-01-10T00:52:45;15.63;;;7.53;;
55641;SDS011;41509;53.108;6.100;2024-01-10T00:55:11;16.08;;;8.20;;
55641;SDS011;41509;53.108;6.100;2024-01-10T00:57:38;18.45;;;7.75;;
55641;SDS011;41509;53.108;6.100;2024-01-10T01:00:04;18.27;;;7.95;;
55641;SDS011;41509;53.108;6.100;2024-01-10T01:02:31;16.08;;;7.90;;
55641;SDS011;41509;53.108;6.100;2024-01-10T01:04:59;16.73;;;7.75;;
55641;SDS011;41509;53.108;6.100;2024-01-10T01:07:25;15.27;;;8.37;;
55641;SDS011;41509;53.108;6.100;2024-01-10T01:09:51;14.70;;;7.97;;
55641;SDS011;41509;53.108;6.100;2024-01-10T01:12:17;15.57;;;7.70;;
55641;SDS011;41509;53.108;6.100;2024-01-10T01:14:43;18.43;;;8.27;;
55641;SDS011;41509;53.108;6.100;2024-01-10T01:17:08;16.50;;;7.73;;
55641;SDS011;41509;53.108;6.100;2024-01-10T01:19:34;18.00;;;8.00;;
55641;SDS011;41509;53.108;6.100;2024-01-10T01:22:00;16.70;;;9.23;;
55641;SDS011;41509;53.108;6.100;2024-01-10T01:24:28;18.50;;;8.15;;
55641;SDS011;41509;53.108;6.100;2024-01-10T01:26:54;16.20;;;8.43;;
55641;SDS011;41509;53.108;6.100;2024-01-10T01:29:20;19.47;;;8.57;;
55641;SDS011;41509;53.108;6.100;2024-01-10T01:31:46;15.55;;;7.55;;
55641;SDS011;41509;53.108;6.100;2024-01-10T01:34:12;15.13;;;9.15;;
55641;SDS011;41509;53.108;6.100;2024-01-10T01:36:37;18.93;;;8.93;;
55641;SDS011;41509;53.108;6.100;2024-01-10T01:39:03;18.30;;;7.47;;
55641;SDS011;41509;53.108;6.100;2024-01-10T01:41:31;15.13;;;7.95;;
55641;SDS011;41509;53.108;6.100;2024-01-10T01:43:57;18.17;;;8.70;;
55641;SDS011;41509;53.108;6.100;2024-01-10T01:46:23;20.23;;;8.93;;
55641;SDS011;41509;53.108;6.100;2024-01-10T01:48:49;18.95;;;8.50;;
55641;SDS011;41509;53.108;6.100;2024-01-10T01:51:17;19.25;;;8.05;;
55641;SDS011;41509;53.108;6.100;2024-01-10T01:53:47;19.05;;;9.88;;
55641;SDS011;41509;53.108;6.100;2024-01-10T01:56:13;19.83;;;9.05;;
55641;SDS011;41509;53.108;6.100;2024-01-10T01:58:40;17.05;;;8.90;;
55641;SDS011;41509;53.108;6.100;2024-01-10T02:01:08;21.65;;;9.98;;
55641;SDS011;41509;53.108;6.100;2024-01-10T02:03:37;21.02;;;9.00;;
55641;SDS011;41509;53.108;6.100;2024-01-10T02:06:05;18.08;;;8.55;;
55641;SDS011;41509;53.108;6.100;2024-01-10T02:08:34;18.17;;;9.13;;
55641;SDS011;41509;53.108;6.100;2024-01-10T02:11:00;18.35;;;8.73;;
55641;SDS011;41509;53.108;6.100;2024-01-10T02:13:27;19.55;;;8.80;;
55641;SDS011;41509;53.108;6.100;2024-01-10T02:15:54;20.10;;;9.63;;
55641;SDS011;41509;53.108;6.100;2024-01-10T02:18:20;21.60;;;9.20;;
55641;SDS011;41509;53.108;6.100;2024-01-10T02:20:45;20.52;;;9.30;;
55641;SDS011;41509;53.108;6.100;2024-01-10T02:23:11;21.47;;;10.03;;
55641;SDS011;41509;53.108;6.100;2024-01-10T02:25:37;17.77;;;7.82;;
55641;SDS011;41509;53.108;6.100;2024-01-10T02:28:08;16.77;;;7.72;;
55641;SDS011;41509;53.108;6.100;2024-01-10T02:30:36;17.98;;;8.75;;
55641;SDS011;41509;53.108;6.100;2024-01-10T02:33:02;17.38;;;8.73;;
55641;SDS011;41509;53.108;6.100;2024-01-10T02:35:28;18.05;;;7.93;;
55641;SDS011;41509;53.108;6.100;2024-01-10T02:37:57;17.30;;;8.63;;
55641;SDS011;41509;53.108;6.100;2024-01-10T02:40:23;20.63;;;9.65;;
55641;SDS011;41509;53.108;6.100;2024-01-10T02:42:49;19.93;;;8.63;;
55641;SDS011;41509;53.108;6.100;2024-01-10T02:45:16;18.02;;;9.43;;
55641;SDS011;41509;53.108;6.100;2024-01-10T02:47:47;20.08;;;9.15;;
55641;SDS011;41509;53.108;6.100;2024-01-10T02:50:13;19.77;;;8.85;;
55641;SDS011;41509;53.108;6.100;2024-01-10T02:52:39;19.17;;;8.60;;
55641;SDS011;41509;53.108;6.100;2024-01-10T02:55:07;20.38;;;9.25;;
55641;SDS011;41509;53.108;6.100;2024-01-10T02:57:36;19.17;;;8.43;;
55641;SDS011;41509;53.108;6.100;2024-01-10T03:00:04;19.83;;;8.90;;
55641;SDS011;41509;53.108;6.100;2024-01-10T03:04:56;15.48;;;7.57;;
55641;SDS011;41509;53.108;6.100;2024-01-10T03:07:21;17.83;;;8.67;;
55641;SDS011;41509;53.108;6.100;2024-01-10T03:09:49;21.27;;;8.98;;
55641;SDS011;41509;53.108;6.100;2024-01-10T03:12:18;17.95;;;8.45;;
55641;SDS011;41509;53.108;6.100;2024-01-10T03:14:44;22.37;;;9.73;;
55641;SDS011;41509;53.108;6.100;2024-01-10T03:17:10;17.48;;;8.85;;
55641;SDS011;41509;53.108;6.100;2024-01-10T03:19:35;16.20;;;8.00;;
55641;SDS011;41509;53.108;6.100;2024-01-10T03:22:07;18.27;;;8.82;;
55641;SDS011;41509;53.108;6.100;2024-01-10T03:24:33;17.13;;;7.97;;
55641;SDS011;41509;53.108;6.100;2024-01-10T03:26:59;18.55;;;8.85;;
55641;SDS011;41509;53.108;6.100;2024-01-10T03:29:24;20.27;;;8.37;;
55641;SDS011;41509;53.108;6.100;2024-01-10T03:31:50;16.20;;;7.50;;
55641;SDS011;41509;53.108;6.100;2024-01-10T03:34:16;21.43;;;8.43;;
55641;SDS011;41509;53.108;6.100;2024-01-10T03:36:43;19.20;;;8.98;;
55641;SDS011;41509;53.108;6.100;2024-01-10T03:39:08;19.30;;;8.63;;
55641;SDS011;41509;53.108;6.100;2024-01-10T03:44:00;18.15;;;8.40;;
55641;SDS011;41509;53.108;6.100;2024-01-10T03:46:26;19.23;;;8.60;;
55641;SDS011;41509;53.108;6.100;2024-01-10T03:48:52;15.83;;;8.50;;
55641;SDS011;41509;53.108;6.100;2024-01-10T03:51:18;22.37;;;9.33;;
55641;SDS011;41509;53.108;6.100;2024-01-10T03:53:44;21.25;;;9.23;;
55641;SDS011;41509;53.108;6.100;2024-01-10T03:56:11;21.20;;;9.80;;
55641;SDS011;41509;53.108;6.100;2024-01-10T03:58:37;19.33;;;10.05;;
55641;SDS011;41509;53.108;6.100;2024-01-10T04:01:06;19.43;;;9.87;;
55641;SDS011;41509;53.108;6.100;2024-01-10T04:03:35;18.88;;;8.90;;
55641;SDS011;41509;53.108;6.100;2024-01-10T04:06:01;22.60;;;9.60;;
55641;SDS011;41509;53.108;6.100;2024-01-10T04:08:27;22.73;;;10.18;;
55641;SDS011;41509;53.108;6.100;2024-01-10T04:10:52;18.23;;;8.40;;
55641;SDS011;41509;53.108;6.100;2024-01-10T04:13:18;21.27;;;8.97;;
55641;SDS011;41509;53.108;6.100;2024-01-10T04:15:44;20.10;;;9.10;;
55641;SDS011;41509;53.108;6.100;2024-01-10T04:18:09;21.70;;;9.77;;
55641;SDS011;41509;53.108;6.100;2024-01-10T04:20:35;20.67;;;9.00;;
55641;SDS011;41509;53.108;6.100;2024-01-10T04:23:01;19.48;;;9.73;;
55641;SDS011;41509;53.108;6.100;2024-01-10T04:25:27;23.70;;;9.60;;
55641;SDS011;41509;53.108;6.100;2024-01-10T04:27:52;28.60;;;9.67;;
55641;SDS011;41509;53.108;6.100;2024-01-10T04:30:18;21.00;;;9.40;;
55641;SDS011;41509;53.108;6.100;2024-01-10T04:32:44;18.53;;;9.70;;
55641;SDS011;41509;53.108;6.100;2024-01-10T04:35:09;24.13;;;9.87;;
55641;SDS011;41509;53.108;6.100;2024-01-10T04:37:35;21.77;;;9.40;;
55641;SDS011;41509;53.108;6.100;2024-01-10T04:40:00;24.50;;;10.00;;
55641;SDS011;41509;53.108;6.100;2024-01-10T04:42:26;20.70;;;8.87;;
55641;SDS011;41509;53.108;6.100;2024-01-10T04:44:52;16.23;;;8.40;;
55641;SDS011;41509;53.108;6.100;2024-01-10T04:47:20;20.50;;;9.18;;
55641;SDS011;41509;53.108;6.100;2024-01-10T04:49:45;23.13;;;9.97;;
55641;SDS011;41509;53.108;6.100;2024-01-10T04:52:13;18.35;;;9.93;;
55641;SDS011;41509;53.108;6.100;2024-01-10T04:54:39;21.77;;;9.23;;
55641;SDS011;41509;53.108;6.100;2024-01-10T04:57:05;16.37;;;7.93;;
55641;SDS011;41509;53.108;6.100;2024-01-10T04:59:30;21.43;;;9.33;;
55641;SDS011;41509;53.108;6.100;2024-01-10T05:01:56;18.97;;;9.10;;
55641;SDS011;41509;53.108;6.100;2024-01-10T05:04:21;19.30;;;8.90;;
55641;SDS011;41509;53.108;6.100;2024-01-10T05:06:47;23.87;;;9.37;;
55641;SDS011;41509;53.108;6.100;2024-01-10T05:09:13;23.77;;;9.03;;
55641;SDS011;41509;53.108;6.100;2024-01-10T05:11:39;19.35;;;8.52;;
55641;SDS011;41509;53.108;6.100;2024-01-10T05:14:04;18.40;;;8.30;;
55641;SDS011;41509;53.108;6.100;2024-01-10T05:16:33;21.73;;;9.80;;
55641;SDS011;41509;53.108;6.100;2024-01-10T05:19:00;18.33;;;8.37;;
55641;SDS011;41509;53.108;6.100;2024-01-10T05:21:27;17.40;;;7.78;;
55641;SDS011;41509;53.108;6.100;2024-01-10T05:23:55;18.90;;;8.57;;
55641;SDS011;41509;53.108;6.100;2024-01-10T05:26:20;19.87;;;9.00;;
55641;SDS011;41509;53.108;6.100;2024-01-10T05:28:49;17.73;;;9.07;;
55641;SDS011;41509;53.108;6.100;2024-01-10T05:31:14;17.48;;;7.97;;
55641;SDS011;41509;53.108;6.100;2024-01-10T05:33:41;17.88;;;8.52;;
55641;SDS011;41509;53.108;6.100;2024-01-10T05:36:08;17.47;;;8.10;;
55641;SDS011;41509;53.108;6.100;2024-01-10T05:38:36;20.17;;;8.68;;
55641;SDS011;41509;53.108;6.100;2024-01-10T05:41:02;18.45;;;8.60;;
55641;SDS011;41509;53.108;6.100;2024-01-10T05:43:28;18.17;;;7.33;;
55641;SDS011;41509;53.108;6.100;2024-01-10T05:45:53;17.60;;;8.17;;
55641;SDS011;41509;53.108;6.100;2024-01-10T05:48:19;17.67;;;8.57;;
55641;SDS011;41509;53.108;6.100;2024-01-10T05:50:45;18.90;;;8.00;;
55641;SDS011;41509;53.108;6.100;2024-01-10T05:53:10;19.23;;;9.17;;
55641;SDS011;41509;53.108;6.100;2024-01-10T05:55:42;15.02;;;7.68;;
55641;SDS011;41509;53.108;6.100;2024-01-10T05:58:09;14.68;;;6.97;;
55641;SDS011;41509;53.108;6.100;2024-01-10T06:00:35;18.95;;;8.55;;
55641;SDS011;41509;53.108;6.100;2024-01-10T06:03:00;17.93;;;8.47;;
55641;SDS011;41509;53.108;6.100;2024-01-10T06:05:26;19.30;;;9.03;;
55641;SDS011;41509;53.108;6.100;2024-01-10T06:07:52;18.83;;;9.00;;
55641;SDS011;41509;53.108;6.100;2024-01-10T06:10:17;17.67;;;8.13;;
55641;SDS011;41509;53.108;6.100;2024-01-10T06:12:43;19.93;;;8.30;;
55641;SDS011;41509;53.108;6.100;2024-01-10T06:15:08;16.53;;;8.27;;
55641;SDS011;41509;53.108;6.100;2024-01-10T06:17:35;23.10;;;9.68;;
55641;SDS011;41509;53.108;6.100;2024-01-10T06:20:00;23.90;;;9.67;;
55641;SDS011;41509;53.108;6.100;2024-01-10T06:22:28;17.63;;;8.80;;
55641;SDS011;41509;53.108;6.100;2024-01-10T06:24:53;18.00;;;9.53;;
55641;SDS011;41509;53.108;6.100;2024-01-10T06:27:19;20.23;;;9.70;;
55641;SDS011;41509;53.108;6.100;2024-01-10T06:29:44;18.00;;;9.00;;
55641;SDS011;41509;53.108;6.100;2024-01-10T06:32:10;21.40;;;7.60;;
55641;SDS011;41509;53.108;6.100;2024-01-10T06:34:36;22.52;;;9.55;;
55641;SDS011;41509;53.108;6.100;2024-01-10T06:37:02;14.50;;;8.13;;
55641;SDS011;41509;53.108;6.100;2024-01-10T06:39:28;18.42;;;7.97;;
55641;SDS011;41509;53.108;6.100;2024-01-10T06:41:54;19.37;;;8.50;;
55641;SDS011;41509;53.108;6.100;2024-01-10T06:44:20;15.85;;;8.63;;
55641;SDS011;41509;53.108;6.100;2024-01-10T06:46:45;15.90;;;9.13;;
55641;SDS011;41509;53.108;6.100;2024-01-10T06:49:11;14.90;;;8.13;;
55641;SDS011;41509;53.108;6.100;2024-01-10T06:51:37;16.33;;;8.15;;
55641;SDS011;41509;53.108;6.100;2024-01-10T06:54:03;23.47;;;9.70;;
55641;SDS011;41509;53.108;6.100;2024-01-10T06:56:30;20.73;;;8.20;;
55641;SDS011;41509;53.108;6.100;2024-01-10T06:58:59;19.83;;;8.93;;
55641;SDS011;41509;53.108;6.100;2024-01-10T07:01:26;19.27;;;8.73;;
55641;SDS011;41509;53.108;6.100;2024-01-10T07:06:19;17.38;;;8.02;;
55641;SDS011;41509;53.108;6.100;2024-01-10T07:08:52;18.52;;;7.55;;
55641;SDS011;41509;53.108;6.100;2024-01-10T07:11:18;20.97;;;9.30;;
55641;SDS011;41509;53.108;6.100;2024-01-10T07:13:47;17.83;;;8.25;;
55641;SDS011;41509;53.108;6.100;2024-01-10T07:16:15;18.55;;;8.80;;
55641;SDS011;41509;53.108;6.100;2024-01-10T07:18:43;16.58;;;8.07;;
55641;SDS011;41509;53.108;6.100;2024-01-10T07:21:11;21.75;;;9.07;;
55641;SDS011;41509;53.108;6.100;2024-01-10T07:23:37;18.03;;;8.30;;
55641;SDS011;41509;53.108;6.100;2024-01-10T07:26:08;17.33;;;8.43;;
55641;SDS011;41509;53.108;6.100;2024-01-10T07:28:33;16.87;;;9.23;;
55641;SDS011;41509;53.108;6.100;2024-01-10T07:30:59;23.23;;;10.67;;
55641;SDS011;41509;53.108;6.100;2024-01-10T07:33:31;19.15;;;9.40;;
55641;SDS011;41509;53.108;6.100;2024-01-10T07:36:00;19.77;;;9.87;;
55641;SDS011;41509;53.108;6.100;2024-01-10T07:38:26;21.08;;;10.25;;
55641;SDS011;41509;53.108;6.100;2024-01-10T07:40:51;23.83;;;11.53;;
55641;SDS011;41509;53.108;6.100;2024-01-10T07:43:20;22.08;;;10.07;;
55641;SDS011;41509;53.108;6.100;2024-01-10T07:45:45;25.10;;;10.70;;
55641;SDS011;41509;53.108;6.100;2024-01-10T07:48:11;23.63;;;11.43;;
55641;SDS011;41509;53.108;6.100;2024-01-10T07:50:37;23.33;;;10.47;;
55641;SDS011;41509;53.108;6.100;2024-01-10T07:53:02;21.90;;;10.63;;
55641;SDS011;41509;53.108;6.100;2024-01-10T07:55:28;24.23;;;11.20;;
55641;SDS011;41509;53.108;6.100;2024-01-10T07:57:54;22.15;;;10.23;;
55641;SDS011;41509;53.108;6.100;2024-01-10T08:00:20;22.97;;;10.60;;
55641;SDS011;41509;53.108;6.100;2024-01-10T08:02:46;21.57;;;9.80;;
55641;SDS011;41509;53.108;6.100;2024-01-10T08:05:11;21.87;;;10.77;;
55641;SDS011;41509;53.108;6.100;2024-01-10T08:07:38;20.45;;;10.43;;
55641;SDS011;41509;53.108;6.100;2024-01-10T08:10:08;23.65;;;10.98;;
55641;SDS011;41509;53.108;6.100;2024-01-10T08:12:37;25.75;;;10.60;;
55641;SDS011;41509;53.108;6.100;2024-01-10T08:15:04;22.20;;;10.13;;
55641;SDS011;41509;53.108;6.100;2024-01-10T08:17:31;21.38;;;10.25;;
55641;SDS011;41509;53.108;6.100;2024-01-10T08:22:23;20.95;;;8.85;;
55641;SDS011;41509;53.108;6.100;2024-01-10T08:24:49;18.60;;;9.80;;
55641;SDS011;41509;53.108;6.100;2024-01-10T08:27:15;21.77;;;10.23;;
55641;SDS011;41509;53.108;6.100;2024-01-10T08:29:42;18.15;;;8.90;;
55641;SDS011;41509;53.108;6.100;2024-01-10T08:32:07;20.40;;;8.80;;
55641;SDS011;41509;53.108;6.100;2024-01-10T08:34:33;27.70;;;11.90;;
55641;SDS011;41509;53.108;6.100;2024-01-10T08:36:59;19.47;;;10.17;;
55641;SDS011;41509;53.108;6.100;2024-01-10T08:39:24;26.43;;;10.87;;
55641;SDS011;41509;53.108;6.100;2024-01-10T08:41:53;18.08;;;9.40;;
55641;SDS011;41509;53.108;6.100;2024-01-10T08:44:19;24.07;;;10.57;;
55641;SDS011;41509;53.108;6.100;2024-01-10T08:46:44;19.63;;;9.30;;
55641;SDS011;41509;53.108;6.100;2024-01-10T08:49:10;19.30;;;9.50;;
55641;SDS011;41509;53.108;6.100;2024-01-10T08:51:36;20.70;;;9.45;;
55641;SDS011;41509;53.108;6.100;2024-01-10T08:54:02;22.23;;;9.93;;
55641;SDS011;41509;53.108;6.100;2024-01-10T08:56:28;19.08;;;8.55;;
55641;SDS011;41509;53.108;6.100;2024-01-10T08:58:54;22.83;;;9.13;;
55641;SDS011;41509;53.108;6.100;2024-01-10T09:01:20;19.17;;;8.90;;
55641;SDS011;41509;53.108;6.100;2024-01-10T09:03:46;20.90;;;8.33;;
55641;SDS011;41509;53.108;6.100;2024-01-10T09:06:11;18.65;;;7.97;;
55641;SDS011;41509;53.108;6.100;2024-01-10T09:08:38;19.33;;;9.13;;
55641;SDS011;41509;53.108;6.100;2024-01-10T09:11:04;20.90;;;7.93;;
55641;SDS011;41509;53.108;6.100;2024-01-10T09:13:30;20.73;;;8.70;;
55641;SDS011;41509;53.108;6.100;2024-01-10T09:15:56;21.73;;;9.00;;
55641;SDS011;41509;53.108;6.100;2024-01-10T09:18:22;16.57;;;7.63;;
55641;SDS011;41509;53.108;6.100;2024-01-10T09:20:47;20.20;;;8.30;;
55641;SDS011;41509;53.108;6.100;2024-01-10T09:23:13;15.87;;;7.67;;
55641;SDS011;41509;53.108;6.100;2024-01-10T09:25:39;20.63;;;8.00;;
55641;SDS011;41509;53.108;6.100;2024-01-10T09:28:05;17.67;;;8.70;;
55641;SDS011;41509;53.108;6.100;2024-01-10T09:30:30;20.20;;;8.63;;
55641;SDS011;41509;53.108;6.100;2024-01-10T09:32:56;20.60;;;8.27;;
55641;SDS011;41509;53.108;6.100;2024-01-10T09:35:22;16.70;;;7.70;;
55641;SDS011;41509;53.108;6.100;2024-01-10T09:37:48;22.33;;;9.48;;
55641;SDS011;41509;53.108;6.100;2024-01-10T09:42:41;16.45;;;7.57;;
55641;SDS011;41509;53.108;6.100;2024-01-10T09:45:09;19.45;;;8.02;;
55641;SDS011;41509;53.108;6.100;2024-01-10T09:47:36;17.17;;;8.13;;
55641;SDS011;41509;53.108;6.100;2024-01-10T09:50:04;20.60;;;8.30;;
55641;SDS011;41509;53.108;6.100;2024-01-10T09:52:32;18.42;;;8.50;;
55641;SDS011;41509;53.108;6.100;2024-01-10T09:55:04;18.45;;;8.43;;
55641;SDS011;41509;53.108;6.100;2024-01-10T09:57:30;19.80;;;8.57;;
55641;SDS011;41509;53.108;6.100;2024-01-10T09:59:56;19.27;;;8.30;;
55641;SDS011;41509;53.108;6.100;2024-01-10T10:02:21;20.77;;;7.57;;
55641;SDS011;41509;53.108;6.100;2024-01-10T10:07:46;26.15;;;10.07;;
55641;SDS011;41509;53.108;6.100;2024-01-10T10:10:16;19.52;;;8.77;;
55641;SDS011;41509;53.108;6.100;2024-01-10T10:12:43;21.65;;;8.88;;
55641;SDS011;41509;53.108;6.100;2024-01-10T10:15:14;19.73;;;8.77;;
55641;SDS011;41509;53.108;6.100;2024-01-10T10:17:42;22.70;;;8.48;;
55641;SDS011;41509;53.108;6.100;2024-01-10T10:20:13;20.85;;;8.38;;
55641;SDS011;41509;53.108;6.100;2024-01-10T10:25:34;21.73;;;8.60;;
55641;SDS011;41509;53.108;6.100;2024-01-10T10:28:07;22.20;;;9.18;;
55641;SDS011;41509;53.108;6.100;2024-01-10T10:30:33;21.90;;;9.73;;
55641;SDS011;41509;53.108;6.100;2024-01-10T10:33:00;20.08;;;7.80;;
55641;SDS011;41509;53.108;6.100;2024-01-10T10:35:29;18.98;;;7.97;;
55641;SDS011;41509;53.108;6.100;2024-01-10T10:37:54;21.67;;;7.80;;
55641;SDS011;41509;53.108;6.100;2024-01-10T10:40:21;18.80;;;7.43;;
55641;SDS011;41509;53.108;6.100;2024-01-10T10:45:17;14.35;;;5.75;;
55641;SDS011;41509;53.108;6.100;2024-01-10T10:47:47;15.82;;;6.10;;
55641;SDS011;41509;53.108;6.100;2024-01-10T10:50:20;19.25;;;7.28;;
55641;SDS011;41509;53.108;6.100;2024-01-10T10:52:48;14.55;;;6.30;;
55641;SDS011;41509;53.108;6.100;2024-01-10T10:55:15;17.35;;;6.03;;
55641;SDS011;41509;53.108;6.100;2024-01-10T10:57:45;19.50;;;5.82;;
55641;SDS011;41509;53.108;6.100;2024-01-10T11:00:19;13.70;;;6.13;;
55641;SDS011;41509;53.108;6.100;2024-01-10T11:02:52;16.08;;;6.50;;
55641;SDS011;41509;53.108;6.100;2024-01-10T11:05:20;17.92;;;7.53;;
55641;SDS011;41509;53.108;6.100;2024-01-10T11:07:47;16.52;;;5.95;;
55641;SDS011;41509;53.108;6.100;2024-01-10T11:10:14;14.00;;;5.90;;
55641;SDS011;41509;53.108;6.100;2024-01-10T11:13:00;13.75;;;5.40;;
55641;SDS011;41509;53.108;6.100;2024-01-10T11:18:27;13.82;;;5.45;;
55641;SDS011;41509;53.108;6.100;2024-01-10T11:23:45;15.63;;;6.20;;
55641;SDS011;41509;53.108;6.100;2024-01-10T11:26:14;12.68;;;5.15;;
55641;SDS011;41509;53.108;6.100;2024-01-10T11:28:41;16.60;;;5.07;;
55641;SDS011;41509;53.108;6.100;2024-01-10T11:31:08;11.90;;;4.70;;
55641;SDS011;41509;53.108;6.100;2024-01-10T11:33:35;13.93;;;5.72;;
55641;SDS011;41509;53.108;6.100;2024-01-10T11:38:39;13.30;;;5.07;;
55641;SDS011;41509;53.108;6.100;2024-01-10T11:41:06;12.20;;;4.68;;
55641;SDS011;41509;53.108;6.100;2024-01-10T11:43:33;13.52;;;4.95;;
55641;SDS011;41509;53.108;6.100;2024-01-10T11:45:59;12.80;;;5.03;;
55641;SDS011;41509;53.108;6.100;2024-01-10T11:48:30;12.05;;;4.50;;
55641;SDS011;41509;53.108;6.100;2024-01-10T11:50:59;16.42;;;5.03;;
55641;SDS011;41509;53.108;6.100;2024-01-10T11:53:40;12.05;;;4.60;;
55641;SDS011;41509;53.108;6.100;2024-01-10T11:56:10;12.25;;;4.80;;
55641;SDS011;41509;53.108;6.100;2024-01-10T11:58:51;12.27;;;5.15;;
55641;SDS011;41509;53.108;6.100;2024-01-10T12:01:37;14.80;;;4.87;;
55641;SDS011;41509;53.108;6.100;2024-01-10T12:04:03;9.73;;;4.80;;
55641;SDS011;41509;53.108;6.100;2024-01-10T12:06:33;13.55;;;5.38;;
55641;SDS011;41509;53.108;6.100;2024-01-10T12:09:01;13.48;;;5.43;;
55641;SDS011;41509;53.108;6.100;2024-01-10T12:11:33;14.85;;;5.78;;
55641;SDS011;41509;53.108;6.100;2024-01-10T12:14:04;13.77;;;5.05;;
55641;SDS011;41509;53.108;6.100;2024-01-10T12:16:30;11.40;;;4.88;;
55641;SDS011;41509;53.108;6.100;2024-01-10T12:18:57;13.77;;;5.75;;
55641;SDS011;41509;53.108;6.100;2024-01-10T12:21:23;13.60;;;4.77;;
55641;SDS011;41509;53.108;6.100;2024-01-10T12:23:49;11.47;;;4.77;;
55641;SDS011;41509;53.108;6.100;2024-01-10T12:26:16;15.90;;;5.00;;
55641;SDS011;41509;53.108;6.100;2024-01-10T12:28:52;9.23;;;4.45;;
55641;SDS011;41509;53.108;6.100;2024-01-10T12:31:23;10.30;;;4.13;;
55641;SDS011;41509;53.108;6.100;2024-01-10T12:33:52;12.18;;;5.50;;
55641;SDS011;41509;53.108;6.100;2024-01-10T12:36:20;13.50;;;5.50;;
55641;SDS011;41509;53.108;6.100;2024-01-10T12:38:46;10.68;;;4.45;;
55641;SDS011;41509;53.108;6.100;2024-01-10T12:41:14;12.85;;;4.82;;
55641;SDS011;41509;53.108;6.100;2024-01-10T12:43:40;14.35;;;4.82;;
55641;SDS011;41509;53.108;6.100;2024-01-10T12:48:33;11.90;;;4.85;;
55641;SDS011;41509;53.108;6.100;2024-01-10T12:51:05;12.60;;;4.63;;
55641;SDS011;41509;53.108;6.100;2024-01-10T12:53:33;13.82;;;5.20;;
55641;SDS011;41509;53.108;6.100;2024-01-10T12:56:00;11.82;;;4.10;;
55641;SDS011;41509;53.108;6.100;2024-01-10T12:58:25;11.67;;;4.60;;
55641;SDS011;41509;53.108;6.100;2024-01-10T13:00:52;12.45;;;5.15;;
55641;SDS011;41509;53.108;6.100;2024-01-10T13:03:17;13.17;;;4.70;;
55641;SDS011;41509;53.108;6.100;2024-01-10T13:05:43;10.10;;;4.50;;
55641;SDS011;41509;53.108;6.100;2024-01-10T13:08:09;14.47;;;5.17;;
55641;SDS011;41509;53.108;6.100;2024-01-10T13:10:36;11.95;;;4.80;;
55641;SDS011;41509;53.108;6.100;2024-01-10T13:13:03;11.95;;;4.45;;
55641;SDS011;41509;53.108;6.100;2024-01-10T13:15:28;15.30;;;4.90;;
55641;SDS011;41509;53.108;6.100;2024-01-10T13:17:54;12.37;;;5.17;;
55641;SDS011;41509;53.108;6.100;2024-01-10T13:20:20;13.13;;;5.10;;
55641;SDS011;41509;53.108;6.100;2024-01-10T13:22:46;10.17;;;4.50;;
55641;SDS011;41509;53.108;6.100;2024-01-10T13:25:11;10.67;;;4.70;;
55641;SDS011;41509;53.108;6.100;2024-01-10T13:27:38;12.47;;;4.60;;
55641;SDS011;41509;53.108;6.100;2024-01-10T13:30:04;11.32;;;4.20;;
55641;SDS011;41509;53.108;6.100;2024-01-10T13:32:30;14.25;;;5.32;;
55641;SDS011;41509;53.108;6.100;2024-01-10T13:34:56;8.63;;;3.97;;
55641;SDS011;41509;53.108;6.100;2024-01-10T13:37:22;15.83;;;5.50;;
55641;SDS011;41509;53.108;6.100;2024-01-10T13:39:48;14.23;;;5.28;;
55641;SDS011;41509;53.108;6.100;2024-01-10T13:42:14;10.47;;;4.77;;
55641;SDS011;41509;53.108;6.100;2024-01-10T13:44:39;14.82;;;5.22;;
55641;SDS011;41509;53.108;6.100;2024-01-10T13:47:06;12.25;;;4.75;;
55641;SDS011;41509;53.108;6.100;2024-01-10T13:49:31;10.33;;;4.43;;
55641;SDS011;41509;53.108;6.100;2024-01-10T13:51:57;10.37;;;4.37;;
55641;SDS011;41509;53.108;6.100;2024-01-10T13:54:23;11.03;;;4.80;;
55641;SDS011;41509;53.108;6.100;2024-01-10T13:56:48;15.47;;;5.93;;
55641;SDS011;41509;53.108;6.100;2024-01-10T13:59:14;14.33;;;4.83;;
55641;SDS011;41509;53.108;6.100;2024-01-10T14:01:39;13.30;;;5.23;;
55641;SDS011;41509;53.108;6.100;2024-01-10T14:04:05;11.73;;;4.87;;
55641;SDS011;41509;53.108;6.100;2024-01-10T14:06:31;12.13;;;4.67;;
55641;SDS011;41509;53.108;6.100;2024-01-10T14:08:57;17.10;;;5.03;;
55641;SDS011;41509;53.108;6.100;2024-01-10T14:11:23;12.97;;;5.47;;
55641;SDS011;41509;53.108;6.100;2024-01-10T14:13:49;11.75;;;5.22;;
55641;SDS011;41509;53.108;6.100;2024-01-10T14:16:17;13.25;;;5.80;;
55641;SDS011;41509;53.108;6.100;2024-01-10T14:18:43;17.57;;;7.63;;
55641;SDS011;41509;53.108;6.100;2024-01-10T14:21:08;18.03;;;6.50;;
55641;SDS011;41509;53.108;6.100;2024-01-10T14:23:34;15.73;;;5.57;;
55641;SDS011;41509;53.108;6.100;2024-01-10T14:26:00;11.68;;;4.97;;
55641;SDS011;41509;53.108;6.100;2024-01-10T14:28:26;13.27;;;5.90;;
55641;SDS011;41509;53.108;6.100;2024-01-10T14:30:52;24.15;;;7.90;;
55641;SDS011;41509;53.108;6.100;2024-01-10T14:33:17;15.93;;;7.17;;
55641;SDS011;41509;53.108;6.100;2024-01-10T14:35:43;17.20;;;5.70;;
55641;SDS011;41509;53.108;6.100;2024-01-10T14:38:10;17.05;;;6.63;;
55641;SDS011;41509;53.108;6.100;2024-01-10T14:40:36;16.15;;;6.72;;
55641;SDS011;41509;53.108;6.100;2024-01-10T14:43:02;15.98;;;6.32;;
55641;SDS011;41509;53.108;6.100;2024-01-10T14:45:28;20.90;;;7.97;;
55641;SDS011;41509;53.108;6.100;2024-01-10T14:47:54;15.45;;;6.28;;
55641;SDS011;41509;53.108;6.100;2024-01-10T14:50:20;16.75;;;5.88;;
55641;SDS011;41509;53.108;6.100;2024-01-10T14:52:48;14.18;;;6.10;;
55641;SDS011;41509;53.108;6.100;2024-01-10T14:55:15;15.95;;;5.78;;
55641;SDS011;41509;53.108;6.100;2024-01-10T14:57:41;16.45;;;6.63;;
55641;SDS011;41509;53.108;6.100;2024-01-10T15:00:08;16.20;;;6.63;;
55641;SDS011;41509;53.108;6.100;2024-01-10T15:02:35;14.77;;;6.00;;